sensor_id;sensor_type;location;lat;lon;timestamp;pressure;altitude;pressure_sealevel;temperature;humidity
56518;BME280;42419;48.760;2.322;2023-10-19T00:01:47;98766.28;;;15.58;72.34
56518;BME280;42419;48.760;2.322;2023-10-19T00:04:14;98784.13;;;15.71;72.47
56518;BME280;42419;48.760;2.322;2023-10-19T00:06:39;98786.16;;;15.66;72.63
56518;BME280;42419;48.760;2.322;2023-10-19T00:09:05;98790.53;;;15.67;72.57
56518;BME280;42419;48.760;2.322;2023-10-19T00:11:38;98773.84;;;15.65;72.43
56518;BME280;42419;48.760;2.322;2023-10-19T00:14:06;98783.50;;;15.66;72.35
56518;BME280;42419;48.760;2.322;2023-10-19T00:16:43;98791.31;;;15.69;72.32
56518;BME280;42419;48.760;2.322;2023-10-19T00:19:18;98794.97;;;15.67;72.45
56518;BME280;42419;48.760;2.322;2023-10-19T00:21:47;98796.69;;;15.68;72.61
56518;BME280;42419;48.760;2.322;2023-10-19T00:24:17;98782.06;;;15.61;73.08
56518;BME280;42419;48.760;2.322;2023-10-19T00:26:43;98790.72;;;15.64;72.97
56518;BME280;42419;48.760;2.322;2023-10-19T00:29:09;98790.59;;;15.66;72.88
56518;BME280;42419;48.760;2.322;2023-10-19T00:31:53;98768.06;;;15.57;72.80
56518;BME280;42419;48.760;2.322;2023-10-19T00:34:21;98788.06;;;15.64;72.67
56518;BME280;42419;48.760;2.322;2023-10-19T00:36:47;98783.38;;;15.69;72.77
56518;BME280;42419;48.760;2.322;2023-10-19T00:39:13;98784.13;;;15.71;72.81
56518;BME280;42419;48.760;2.322;2023-10-19T00:41:46;98777.97;;;15.71;72.82
56518;BME280;42419;48.760;2.322;2023-10-19T00:44:12;98778.69;;;15.74;72.63
56518;BME280;42419;48.760;2.322;2023-10-19T00:46:41;98746.72;;;15.60;72.60
56518;BME280;42419;48.760;2.322;2023-10-19T00:49:08;98767.09;;;15.75;72.63
56518;BME280;42419;48.760;2.322;2023-10-19T00:51:40;98747.66;;;15.59;72.65
56518;BME280;42419;48.760;2.322;2023-10-19T00:54:17;98759.50;;;15.69;73.30
56518;BME280;42419;48.760;2.322;2023-10-19T00:56:52;98759.38;;;15.71;73.16
56518;BME280;42419;48.760;2.322;2023-10-19T00:59:21;98753.31;;;15.69;73.09
56518;BME280;42419;48.760;2.322;2023-10-19T01:01:51;98752.78;;;15.62;73.15
56518;BME280;42419;48.760;2.322;2023-10-19T01:04:20;98764.94;;;15.66;73.39
56518;BME280;42419;48.760;2.322;2023-10-19T01:06:48;98762.28;;;15.66;73.43
56518;BME280;42419;48.760;2.322;2023-10-19T01:09:32;98748.28;;;15.64;73.39
56518;BME280;42419;48.760;2.322;2023-10-19T01:12:04;98675.84;;;15.29;73.53
56518;BME280;42419;48.760;2.322;2023-10-19T01:17:48;98738.41;;;15.66;73.43
56518;BME280;42419;48.760;2.322;2023-10-19T01:20:20;98734.75;;;15.69;73.46
56518;BME280;42419;48.760;2.322;2023-10-19T01:23:08;98717.63;;;15.59;73.42
56518;BME280;42419;48.760;2.322;2023-10-19T01:25:49;98727.56;;;15.71;73.85
56518;BME280;42419;48.760;2.322;2023-10-19T01:28:26;98712.50;;;15.71;73.66
56518;BME280;42419;48.760;2.322;2023-10-19T01:31:21;98715.16;;;15.71;73.79
56518;BME280;42419;48.760;2.322;2023-10-19T01:33:52;98707.13;;;15.73;73.73
56518;BME280;42419;48.760;2.322;2023-10-19T01:36:21;98701.81;;;15.73;73.82
56518;BME280;42419;48.760;2.322;2023-10-19T01:38:46;98696.69;;;15.70;73.86
56518;BME280;42419;48.760;2.322;2023-10-19T01:41:13;98695.84;;;15.69;74.01
56518;BME280;42419;48.760;2.322;2023-10-19T01:43:40;98693.25;;;15.68;74.04
56518;BME280;42419;48.760;2.322;2023-10-19T01:46:05;98696.75;;;15.68;74.31
56518;BME280;42419;48.760;2.322;2023-10-19T01:48:37;98690.53;;;15.69;74.00
56518;BME280;42419;48.760;2.322;2023-10-19T01:51:05;98679.91;;;15.69;73.84
56518;BME280;42419;48.760;2.322;2023-10-19T01:53:33;98677.25;;;15.69;74.11
56518;BME280;42419;48.760;2.322;2023-10-19T01:56:04;98676.41;;;15.69;73.78
56518;BME280;42419;48.760;2.322;2023-10-19T01:58:33;98680.91;;;15.67;73.87
56518;BME280;42419;48.760;2.322;2023-10-19T02:01:02;98678.38;;;15.65;74.00
56518;BME280;42419;48.760;2.322;2023-10-19T02:03:31;98647.66;;;15.44;74.16
56518;BME280;42419;48.760;2.322;2023-10-19T02:05:58;98648.97;;;15.53;73.90
56518;BME280;42419;48.760;2.322;2023-10-19T02:08:27;98655.00;;;15.56;74.06
56518;BME280;42419;48.760;2.322;2023-10-19T02:10:53;98649.34;;;15.62;73.88
56518;BME280;42419;48.760;2.322;2023-10-19T02:13:21;98666.66;;;15.69;74.11
56518;BME280;42419;48.760;2.322;2023-10-19T02:15:47;98631.41;;;15.50;73.67
56518;BME280;42419;48.760;2.322;2023-10-19T02:18:12;98638.84;;;15.61;73.88
56518;BME280;42419;48.760;2.322;2023-10-19T02:20:37;98633.53;;;15.61;74.04
56518;BME280;42419;48.760;2.322;2023-10-19T02:23:07;98647.91;;;15.72;73.79
56518;BME280;42419;48.760;2.322;2023-10-19T02:25:33;98653.22;;;15.72;73.58
56518;BME280;42419;48.760;2.322;2023-10-19T02:28:03;98653.22;;;15.72;73.83
56518;BME280;42419;48.760;2.322;2023-10-19T02:30:31;98645.44;;;15.69;73.67
56518;BME280;42419;48.760;2.322;2023-10-19T02:32:59;98645.44;;;15.69;73.61
56518;BME280;42419;48.760;2.322;2023-10-19T02:35:25;98608.59;;;15.48;73.72
56518;BME280;42419;48.760;2.322;2023-10-19T02:37:52;98646.44;;;15.67;73.58
56518;BME280;42419;48.760;2.322;2023-10-19T02:40:17;98641.31;;;15.64;73.70
56518;BME280;42419;48.760;2.322;2023-10-19T02:42:48;98638.66;;;15.64;73.92
56518;BME280;42419;48.760;2.322;2023-10-19T02:45:17;98636.34;;;15.58;73.89
56518;BME280;42419;48.760;2.322;2023-10-19T02:47:46;98607.88;;;15.44;74.03
56518;BME280;42419;48.760;2.322;2023-10-19T02:50:12;98632.06;;;15.55;73.90
56518;BME280;42419;48.760;2.322;2023-10-19T02:52:47;98633.00;;;15.54;73.81
56518;BME280;42419;48.760;2.322;2023-10-19T02:55:13;98634.00;;;15.52;74.01
56518;BME280;42419;48.760;2.322;2023-10-19T02:57:41;98634.00;;;15.52;73.95
56518;BME280;42419;48.760;2.322;2023-10-19T03:00:07;98627.22;;;15.46;73.97
56518;BME280;42419;48.760;2.322;2023-10-19T03:02:40;98631.59;;;15.47;74.35
56518;BME280;42419;48.760;2.322;2023-10-19T03:05:06;98620.53;;;15.39;74.28
56518;BME280;42419;48.760;2.322;2023-10-19T03:07:41;98622.94;;;15.44;74.07
56518;BME280;42419;48.760;2.322;2023-10-19T03:10:09;98592.72;;;15.30;74.25
56518;BME280;42419;48.760;2.322;2023-10-19T03:12:50;98608.97;;;15.40;74.11
56518;BME280;42419;48.760;2.322;2023-10-19T03:15:15;98586.06;;;15.23;74.51
56518;BME280;42419;48.760;2.322;2023-10-19T03:17:41;98615.22;;;15.39;74.22
56518;BME280;42419;48.760;2.322;2023-10-19T03:20:08;98609.91;;;15.39;74.35
56518;BME280;42419;48.760;2.322;2023-10-19T03:22:36;98608.13;;;15.40;74.16
56518;BME280;42419;48.760;2.322;2023-10-19T03:25:02;98597.94;;;15.32;74.28
56518;BME280;42419;48.760;2.322;2023-10-19T03:27:46;98601.22;;;15.37;74.07
56518;BME280;42419;48.760;2.322;2023-10-19T03:30:11;98588.69;;;15.23;74.30
56518;BME280;42419;48.760;2.322;2023-10-19T03:32:41;98595.13;;;15.35;74.28
56518;BME280;42419;48.760;2.322;2023-10-19T03:35:06;98575.44;;;15.23;74.33
56518;BME280;42419;48.760;2.322;2023-10-19T03:37:32;98597.94;;;15.32;74.38
56518;BME280;42419;48.760;2.322;2023-10-19T03:40:00;98591.78;;;15.31;74.58
56518;BME280;42419;48.760;2.322;2023-10-19T03:42:31;98596.09;;;15.34;75.07
56518;BME280;42419;48.760;2.322;2023-10-19T03:45:09;98574.41;;;15.26;74.13
56518;BME280;42419;48.760;2.322;2023-10-19T03:47:47;98587.16;;;15.35;74.41
56518;BME280;42419;48.760;2.322;2023-10-19T03:50:14;98548.31;;;15.18;74.26
56518;BME280;42419;48.760;2.322;2023-10-19T03:52:45;98581.78;;;15.37;74.20
56518;BME280;42419;48.760;2.322;2023-10-19T03:55:11;98575.56;;;15.38;74.23
56518;BME280;42419;48.760;2.322;2023-10-19T03:57:37;98569.31;;;15.39;74.14
56518;BME280;42419;48.760;2.322;2023-10-19T04:00:16;98552.69;;;15.35;74.17
56518;BME280;42419;48.760;2.322;2023-10-19T04:02:41;98566.50;;;15.42;73.96
56518;BME280;42419;48.760;2.322;2023-10-19T04:05:08;98555.81;;;15.43;74.14
56518;BME280;42419;48.760;2.322;2023-10-19T04:07:35;98550.50;;;15.43;74.27
56518;BME280;42419;48.760;2.322;2023-10-19T04:10:00;98535.09;;;15.34;73.79
56518;BME280;42419;48.760;2.322;2023-10-19T04:12:32;98549.72;;;15.41;73.84
56518;BME280;42419;48.760;2.322;2023-10-19T04:15:02;98554.09;;;15.42;73.77
56518;BME280;42419;48.760;2.322;2023-10-19T04:17:43;98547.06;;;15.41;73.86
56518;BME280;42419;48.760;2.322;2023-10-19T04:20:13;98540.16;;;15.39;74.00
56518;BME280;42419;48.760;2.322;2023-10-19T04:22:45;98530.75;;;15.33;73.94
56518;BME280;42419;48.760;2.322;2023-10-19T04:25:11;98510.03;;;15.24;74.26
56518;BME280;42419;48.760;2.322;2023-10-19T04:27:38;98522.78;;;15.33;74.20
56518;BME280;42419;48.760;2.322;2023-10-19T04:30:04;98490.97;;;15.17;74.13
56518;BME280;42419;48.760;2.322;2023-10-19T04:32:30;98511.41;;;15.31;74.29
56518;BME280;42419;48.760;2.322;2023-10-19T04:34:57;98491.66;;;15.21;74.33
56518;BME280;42419;48.760;2.322;2023-10-19T04:37:23;98500.03;;;15.29;74.52
56518;BME280;42419;48.760;2.322;2023-10-19T04:39:49;98483.59;;;15.22;74.24
56518;BME280;42419;48.760;2.322;2023-10-19T04:42:15;98490.38;;;15.28;74.27
56518;BME280;42419;48.760;2.322;2023-10-19T04:44:41;98493.03;;;15.28;74.34
56518;BME280;42419;48.760;2.322;2023-10-19T04:47:06;98496.47;;;15.30;74.37
56518;BME280;42419;48.760;2.322;2023-10-19T04:49:31;98492.00;;;15.30;73.97
56518;BME280;42419;48.760;2.322;2023-10-19T04:51:57;98498.00;;;15.34;74.22
56518;BME280;42419;48.760;2.322;2023-10-19T04:54:22;98477.72;;;15.33;73.93
56518;BME280;42419;48.760;2.322;2023-10-19T04:56:48;98473.69;;;15.26;74.05
56518;BME280;42419;48.760;2.322;2023-10-19T04:59:13;98478.66;;;15.32;74.18
56518;BME280;42419;48.760;2.322;2023-10-19T05:01:39;98467.31;;;15.30;74.11
56518;BME280;42419;48.760;2.322;2023-10-19T05:04:06;98461.91;;;15.31;74.06
56518;BME280;42419;48.760;2.322;2023-10-19T05:06:31;98468.25;;;15.29;74.03
56518;BME280;42419;48.760;2.322;2023-10-19T05:08:56;98486.78;;;15.29;73.97
56518;BME280;42419;48.760;2.322;2023-10-19T05:11:22;98484.88;;;15.31;73.81
56518;BME280;42419;48.760;2.322;2023-10-19T05:13:51;98458.28;;;15.17;74.01
56518;BME280;42419;48.760;2.322;2023-10-19T05:16:16;98456.00;;;15.26;73.99
56518;BME280;42419;48.760;2.322;2023-10-19T05:18:41;98360.97;;;14.73;73.70
56518;BME280;42419;48.760;2.322;2023-10-19T05:21:07;98440.19;;;15.25;73.73
56518;BME280;42419;48.760;2.322;2023-10-19T05:23:32;98449.41;;;15.33;73.83
56518;BME280;42419;48.760;2.322;2023-10-19T05:26:02;98443.59;;;15.27;73.60
56518;BME280;42419;48.760;2.322;2023-10-19T05:28:28;98435.66;;;15.27;74.13
56518;BME280;42419;48.760;2.322;2023-10-19T05:30:53;98416.50;;;15.22;74.10
56518;BME280;42419;48.760;2.322;2023-10-19T05:33:20;98416.16;;;15.28;73.73
56518;BME280;42419;48.760;2.322;2023-10-19T05:35:51;98415.38;;;15.26;73.92
56518;BME280;42419;48.760;2.322;2023-10-19T05:38:17;98417.34;;;15.22;73.74
56518;BME280;42419;48.760;2.322;2023-10-19T05:40:44;98416.16;;;15.28;73.82
56518;BME280;42419;48.760;2.322;2023-10-19T05:43:10;98400.69;;;15.20;73.91
56518;BME280;42419;48.760;2.322;2023-10-19T05:45:37;98386.19;;;15.12;73.81
56518;BME280;42419;48.760;2.322;2023-10-19T05:48:02;98416.22;;;15.26;73.64
56518;BME280;42419;48.760;2.322;2023-10-19T05:50:34;98414.38;;;15.28;73.74
56518;BME280;42419;48.760;2.322;2023-10-19T05:53:00;98411.44;;;15.33;73.49
56518;BME280;42419;48.760;2.322;2023-10-19T05:55:25;98414.09;;;15.33;73.71
56518;BME280;42419;48.760;2.322;2023-10-19T05:57:51;98411.78;;;15.27;73.62
56518;BME280;42419;48.760;2.322;2023-10-19T06:00:16;98395.03;;;15.26;73.52
56518;BME280;42419;48.760;2.322;2023-10-19T06:02:45;98402.47;;;15.35;73.81
56518;BME280;42419;48.760;2.322;2023-10-19T06:05:11;98364.34;;;15.22;73.73
56518;BME280;42419;48.760;2.322;2023-10-19T06:07:37;98356.56;;;15.19;73.69
56518;BME280;42419;48.760;2.322;2023-10-19T06:10:03;98371.09;;;15.28;74.27
56518;BME280;42419;48.760;2.322;2023-10-19T06:12:32;98380.84;;;15.27;74.19
56518;BME280;42419;48.760;2.322;2023-10-19T06:14:58;98327.38;;;15.05;74.31
56518;BME280;42419;48.760;2.322;2023-10-19T06:17:26;98372.97;;;15.26;74.32
56518;BME280;42419;48.760;2.322;2023-10-19T06:19:51;98373.75;;;15.28;74.20
56518;BME280;42419;48.760;2.322;2023-10-19T06:22:16;98378.88;;;15.31;74.20
56518;BME280;42419;48.760;2.322;2023-10-19T06:24:42;98367.41;;;15.30;74.29
56518;BME280;42419;48.760;2.322;2023-10-19T06:27:09;98343.31;;;15.19;74.04
56518;BME280;42419;48.760;2.322;2023-10-19T06:29:34;98373.88;;;15.41;74.27
56518;BME280;42419;48.760;2.322;2023-10-19T06:32:00;98373.81;;;15.42;74.10
56518;BME280;42419;48.760;2.322;2023-10-19T06:34:25;98379.13;;;15.42;74.07
56518;BME280;42419;48.760;2.322;2023-10-19T06:36:52;98386.13;;;15.43;73.94
56518;BME280;42419;48.760;2.322;2023-10-19T06:39:19;98378.84;;;15.47;73.68
56518;BME280;42419;48.760;2.322;2023-10-19T06:41:46;98378.00;;;15.46;73.58
56518;BME280;42419;48.760;2.322;2023-10-19T06:44:12;98385.59;;;15.52;73.73
56518;BME280;42419;48.760;2.322;2023-10-19T06:46:38;98376.78;;;15.52;73.44
56518;BME280;42419;48.760;2.322;2023-10-19T06:49:04;98362.34;;;15.42;73.27
56518;BME280;42419;48.760;2.322;2023-10-19T06:51:30;98385.44;;;15.55;73.53
56518;BME280;42419;48.760;2.322;2023-10-19T06:53:55;98374.75;;;15.57;73.13
56518;BME280;42419;48.760;2.322;2023-10-19T06:56:21;98382.53;;;15.60;72.93
56518;BME280;42419;48.760;2.322;2023-10-19T06:58:46;98387.38;;;15.67;73.13
56518;BME280;42419;48.760;2.322;2023-10-19T07:01:11;98382.84;;;15.69;72.98
56518;BME280;42419;48.760;2.322;2023-10-19T07:03:38;98353.44;;;15.58;72.64
56518;BME280;42419;48.760;2.322;2023-10-19T07:06:04;98378.28;;;15.71;72.63
56518;BME280;42419;48.760;2.322;2023-10-19T07:08:29;98354.03;;;15.63;72.56
56518;BME280;42419;48.760;2.322;2023-10-19T07:10:55;98303.72;;;15.32;72.39
56518;BME280;42419;48.760;2.322;2023-10-19T07:13:20;98370.50;;;15.68;72.70
56518;BME280;42419;48.760;2.322;2023-10-19T07:15:47;98378.56;;;15.67;72.75
56518;BME280;42419;48.760;2.322;2023-10-19T07:18:14;98377.63;;;15.68;72.71
56518;BME280;42419;48.760;2.322;2023-10-19T07:20:39;98369.84;;;15.65;72.93
56518;BME280;42419;48.760;2.322;2023-10-19T07:23:07;98366.69;;;15.58;72.79
56518;BME280;42419;48.760;2.322;2023-10-19T07:25:48;98364.16;;;15.57;73.05
56518;BME280;42419;48.760;2.322;2023-10-19T07:28:20;98358.16;;;15.53;73.30
56518;BME280;42419;48.760;2.322;2023-10-19T07:30:46;98334.72;;;15.46;73.06
56518;BME280;42419;48.760;2.322;2023-10-19T07:33:12;98355.16;;;15.59;72.91
56518;BME280;42419;48.760;2.322;2023-10-19T07:35:42;98350.63;;;15.61;72.95
56518;BME280;42419;48.760;2.322;2023-10-19T07:38:09;98334.31;;;15.67;72.92
56518;BME280;42419;48.760;2.322;2023-10-19T07:40:35;98324.75;;;15.65;72.34
56518;BME280;42419;48.760;2.322;2023-10-19T07:43:01;98328.28;;;15.65;72.31
56518;BME280;42419;48.760;2.322;2023-10-19T07:45:28;98327.88;;;15.71;72.45
56518;BME280;42419;48.760;2.322;2023-10-19T07:47:54;98324.09;;;15.75;72.37
56518;BME280;42419;48.760;2.322;2023-10-19T07:50:19;98307.06;;;15.65;72.00
56518;BME280;42419;48.760;2.322;2023-10-19T07:52:52;98333.03;;;15.89;72.09
56518;BME280;42419;48.760;2.322;2023-10-19T07:55:20;98329.06;;;15.96;71.86
56518;BME280;42419;48.760;2.322;2023-10-19T07:57:49;98303.09;;;15.87;71.44
56518;BME280;42419;48.760;2.322;2023-10-19T08:00:16;98345.88;;;16.10;71.20
56518;BME280;42419;48.760;2.322;2023-10-19T08:02:43;98334.56;;;16.07;70.78
56518;BME280;42419;48.760;2.322;2023-10-19T08:05:10;98334.19;;;16.13;71.15
56518;BME280;42419;48.760;2.322;2023-10-19T08:07:37;98341.69;;;16.20;70.55
56518;BME280;42419;48.760;2.322;2023-10-19T08:10:05;98335.34;;;16.23;70.75
56518;BME280;42419;48.760;2.322;2023-10-19T08:12:31;98303.97;;;16.01;70.50
56518;BME280;42419;48.760;2.322;2023-10-19T08:14:58;98327.47;;;16.21;70.41
56518;BME280;42419;48.760;2.322;2023-10-19T08:17:24;98328.78;;;16.29;70.43
56518;BME280;42419;48.760;2.322;2023-10-19T08:19:49;98309.53;;;16.25;70.50
56518;BME280;42419;48.760;2.322;2023-10-19T08:22:15;98319.94;;;16.42;69.80
56518;BME280;42419;48.760;2.322;2023-10-19T08:24:41;98321.19;;;16.51;69.51
56518;BME280;42419;48.760;2.322;2023-10-19T08:27:09;98308.03;;;16.49;69.42
56518;BME280;42419;48.760;2.322;2023-10-19T08:29:36;98318.16;;;16.71;69.05
56518;BME280;42419;48.760;2.322;2023-10-19T08:32:01;98281.63;;;16.60;68.79
56518;BME280;42419;48.760;2.322;2023-10-19T08:34:27;98313.75;;;16.84;68.34
56518;BME280;42419;48.760;2.322;2023-10-19T08:36:55;98309.84;;;16.90;68.20
56518;BME280;42419;48.760;2.322;2023-10-19T08:39:20;98298.44;;;16.88;67.15
56518;BME280;42419;48.760;2.322;2023-10-19T08:41:46;98299.22;;;16.90;67.34
56518;BME280;42419;48.760;2.322;2023-10-19T08:44:14;98308.56;;;16.95;67.49
56518;BME280;42419;48.760;2.322;2023-10-19T08:46:44;98297.41;;;16.90;67.49
56518;BME280;42419;48.760;2.322;2023-10-19T08:49:11;98315.84;;;17.06;67.26
56518;BME280;42419;48.760;2.322;2023-10-19T08:51:38;98317.03;;;17.15;67.27
56518;BME280;42419;48.760;2.322;2023-10-19T08:54:05;98315.03;;;17.18;66.49
56518;BME280;42419;48.760;2.322;2023-10-19T08:56:32;98275.25;;;17.04;66.77
56518;BME280;42419;48.760;2.322;2023-10-19T08:58:59;98308.16;;;17.28;66.52
56518;BME280;42419;48.760;2.322;2023-10-19T09:01:27;98311.19;;;17.36;66.59
56518;BME280;42419;48.760;2.322;2023-10-19T09:03:53;98307.38;;;17.40;66.32
56518;BME280;42419;48.760;2.322;2023-10-19T09:06:20;98312.38;;;17.45;66.20
56518;BME280;42419;48.760;2.322;2023-10-19T09:08:47;98301.00;;;17.43;66.11
56518;BME280;42419;48.760;2.322;2023-10-19T09:11:13;98309.72;;;17.45;66.01
56518;BME280;42419;48.760;2.322;2023-10-19T09:13:47;98301.56;;;17.48;66.18
56518;BME280;42419;48.760;2.322;2023-10-19T09:16:16;98300.06;;;17.57;65.95
56518;BME280;42419;48.760;2.322;2023-10-19T09:18:42;98294.53;;;17.60;65.67
56518;BME280;42419;48.760;2.322;2023-10-19T09:21:08;98292.50;;;17.76;65.47
56518;BME280;42419;48.760;2.322;2023-10-19T09:23:37;98279.31;;;17.99;64.94
56518;BME280;42419;48.760;2.322;2023-10-19T09:26:03;98278.91;;;18.18;64.15
56518;BME280;42419;48.760;2.322;2023-10-19T09:28:30;98259.63;;;18.27;63.44
56518;BME280;42419;48.760;2.322;2023-10-19T09:31:00;98273.84;;;18.39;62.99
56518;BME280;42419;48.760;2.322;2023-10-19T09:33:26;98251.41;;;18.30;63.13
56518;BME280;42419;48.760;2.322;2023-10-19T09:35:52;98263.91;;;18.54;62.47
56518;BME280;42419;48.760;2.322;2023-10-19T09:38:19;98233.19;;;18.37;62.74
56518;BME280;42419;48.760;2.322;2023-10-19T09:40:51;98253.25;;;18.54;62.54
56518;BME280;42419;48.760;2.322;2023-10-19T09:45:53;98222.19;;;18.41;62.78
56518;BME280;42419;48.760;2.322;2023-10-19T09:48:21;98254.00;;;18.56;62.40
56518;BME280;42419;48.760;2.322;2023-10-19T09:50:52;98260.81;;;18.60;62.21
56518;BME280;42419;48.760;2.322;2023-10-19T09:53:22;98235.69;;;18.51;62.11
56518;BME280;42419;48.760;2.322;2023-10-19T09:55:49;98240.03;;;18.52;62.29
56518;BME280;42419;48.760;2.322;2023-10-19T09:58:17;98266.00;;;18.74;62.10
56518;BME280;42419;48.760;2.322;2023-10-19T10:00:45;98245.69;;;18.60;62.17
56518;BME280;42419;48.760;2.322;2023-10-19T10:06:12;98240.81;;;18.78;61.99
56518;BME280;42419;48.760;2.322;2023-10-19T10:08:40;98245.84;;;18.70;62.26
56518;BME280;42419;48.760;2.322;2023-10-19T10:11:21;98252.34;;;18.66;62.70
56518;BME280;42419;48.760;2.322;2023-10-19T10:13:48;98248.22;;;18.62;62.32
56518;BME280;42419;48.760;2.322;2023-10-19T10:16:19;98253.03;;;18.57;62.59
56518;BME280;42419;48.760;2.322;2023-10-19T10:18:48;98233.13;;;18.50;62.77
56518;BME280;42419;48.760;2.322;2023-10-19T10:21:19;98235.66;;;18.64;62.56
56518;BME280;42419;48.760;2.322;2023-10-19T10:23:49;98236.69;;;18.74;62.01
56518;BME280;42419;48.760;2.322;2023-10-19T10:26:19;98234.28;;;18.82;61.67
56518;BME280;42419;48.760;2.322;2023-10-19T10:28:46;98227.53;;;18.89;61.79
56518;BME280;42419;48.760;2.322;2023-10-19T10:31:20;98222.75;;;18.94;61.30
56518;BME280;42419;48.760;2.322;2023-10-19T10:33:51;98226.63;;;19.01;61.26
56518;BME280;42419;48.760;2.322;2023-10-19T10:36:20;98220.97;;;19.06;61.19
56518;BME280;42419;48.760;2.322;2023-10-19T10:38:50;98217.84;;;19.12;60.99
56518;BME280;42419;48.760;2.322;2023-10-19T10:41:25;98224.25;;;19.09;60.78
56518;BME280;42419;48.760;2.322;2023-10-19T10:43:55;98213.47;;;19.11;60.43
56518;BME280;42419;48.760;2.322;2023-10-19T10:46:23;98202.44;;;19.15;60.54
56518;BME280;42419;48.760;2.322;2023-10-19T10:48:49;98195.66;;;19.11;60.95
56518;BME280;42419;48.760;2.322;2023-10-19T10:51:23;98203.22;;;19.28;60.49
56518;BME280;42419;48.760;2.322;2023-10-19T10:53:50;98182.13;;;19.25;60.03
56518;BME280;42419;48.760;2.322;2023-10-19T10:56:17;98185.28;;;19.42;60.26
56518;BME280;42419;48.760;2.322;2023-10-19T10:58:43;98161.28;;;19.30;59.91
56518;BME280;42419;48.760;2.322;2023-10-19T11:01:09;98163.59;;;19.46;59.65
56518;BME280;42419;48.760;2.322;2023-10-19T11:03:38;98173.69;;;19.54;59.16
56518;BME280;42419;48.760;2.322;2023-10-19T11:06:06;98161.66;;;19.59;58.53
56518;BME280;42419;48.760;2.322;2023-10-19T11:08:36;98150.47;;;19.54;58.84
56518;BME280;42419;48.760;2.322;2023-10-19T11:11:03;98159.63;;;19.63;58.68
56518;BME280;42419;48.760;2.322;2023-10-19T11:13:30;98147.84;;;19.65;59.07
56518;BME280;42419;48.760;2.322;2023-10-19T11:15:58;98149.66;;;19.65;58.99
56518;BME280;42419;48.760;2.322;2023-10-19T11:21:00;98156.34;;;19.93;58.57
56518;BME280;42419;48.760;2.322;2023-10-19T11:23:41;98160.84;;;19.92;57.63
56518;BME280;42419;48.760;2.322;2023-10-19T11:26:08;98161.34;;;19.97;57.48
56518;BME280;42419;48.760;2.322;2023-10-19T11:28:35;98144.47;;;19.97;57.31
56518;BME280;42419;48.760;2.322;2023-10-19T11:31:14;98114.25;;;19.85;56.88
56518;BME280;42419;48.760;2.322;2023-10-19T11:33:44;98155.97;;;20.08;56.04
56518;BME280;42419;48.760;2.322;2023-10-19T11:36:11;98154.03;;;20.10;55.75
56518;BME280;42419;48.760;2.322;2023-10-19T11:38:45;98147.84;;;20.21;55.93
56518;BME280;42419;48.760;2.322;2023-10-19T11:41:12;98130.94;;;20.20;56.13
56518;BME280;42419;48.760;2.322;2023-10-19T11:43:39;98131.84;;;20.42;55.45
56518;BME280;42419;48.760;2.322;2023-10-19T11:46:05;98133.31;;;20.46;54.39
56518;BME280;42419;48.760;2.322;2023-10-19T11:48:33;98127.00;;;20.36;54.09
56518;BME280;42419;48.760;2.322;2023-10-19T11:50:59;98119.72;;;20.38;54.35
56518;BME280;42419;48.760;2.322;2023-10-19T11:53:25;98136.13;;;20.44;53.87
56518;BME280;42419;48.760;2.322;2023-10-19T11:55:53;98124.47;;;20.45;53.86
56518;BME280;42419;48.760;2.322;2023-10-19T11:58:18;98126.75;;;20.50;53.53
56518;BME280;42419;48.760;2.322;2023-10-19T12:00:44;98120.75;;;20.57;53.36
56518;BME280;42419;48.760;2.322;2023-10-19T12:03:11;98119.88;;;20.68;53.16
56518;BME280;42419;48.760;2.322;2023-10-19T12:05:37;98110.69;;;20.82;52.83
56518;BME280;42419;48.760;2.322;2023-10-19T12:08:03;98111.28;;;20.85;51.36
56518;BME280;42419;48.760;2.322;2023-10-19T12:10:28;98116.13;;;20.91;51.94
56518;BME280;42419;48.760;2.322;2023-10-19T12:13:06;98106.41;;;20.90;51.76
56518;BME280;42419;48.760;2.322;2023-10-19T12:15:36;98104.09;;;21.06;51.76
56518;BME280;42419;48.760;2.322;2023-10-19T12:18:01;98107.72;;;21.17;50.93
56518;BME280;42419;48.760;2.322;2023-10-19T12:20:28;98099.19;;;21.23;51.19
56518;BME280;42419;48.760;2.322;2023-10-19T12:22:56;98086.25;;;21.28;50.58
56518;BME280;42419;48.760;2.322;2023-10-19T12:25:21;98057.47;;;21.20;50.16
56518;BME280;42419;48.760;2.322;2023-10-19T12:27:57;98064.84;;;21.28;50.61
56518;BME280;42419;48.760;2.322;2023-10-19T12:30:23;98092.53;;;21.47;50.31
56518;BME280;42419;48.760;2.322;2023-10-19T12:32:51;98079.59;;;21.52;50.65
56518;BME280;42419;48.760;2.322;2023-10-19T12:35:17;98075.22;;;21.51;50.72
56518;BME280;42419;48.760;2.322;2023-10-19T12:37:50;98047.94;;;21.27;50.40
56518;BME280;42419;48.760;2.322;2023-10-19T12:40:23;98039.25;;;21.14;50.43
56518;BME280;42419;48.760;2.322;2023-10-19T12:42:55;98072.78;;;21.39;50.63
56518;BME280;42419;48.760;2.322;2023-10-19T12:45:24;98053.13;;;21.29;50.85
56518;BME280;42419;48.760;2.322;2023-10-19T12:47:51;98073.22;;;21.44;51.14
56518;BME280;42419;48.760;2.322;2023-10-19T12:50:20;98067.28;;;21.40;50.71
56518;BME280;42419;48.760;2.322;2023-10-19T12:52:49;98056.44;;;21.42;51.02
56518;BME280;42419;48.760;2.322;2023-10-19T12:55:16;98041.59;;;21.28;51.39
56518;BME280;42419;48.760;2.322;2023-10-19T12:57:41;98043.44;;;21.28;51.55
56518;BME280;42419;48.760;2.322;2023-10-19T13:00:07;98045.25;;;21.27;51.75
56518;BME280;42419;48.760;2.322;2023-10-19T13:02:57;98042.53;;;21.18;51.44
56518;BME280;42419;48.760;2.322;2023-10-19T13:05:27;98000.03;;;21.03;51.44
56518;BME280;42419;48.760;2.322;2023-10-19T13:07:53;98013.09;;;21.18;51.59
56518;BME280;42419;48.760;2.322;2023-10-19T13:10:18;98024.41;;;21.31;51.82
56518;BME280;42419;48.760;2.322;2023-10-19T13:12:44;98019.91;;;21.31;51.62
56518;BME280;42419;48.760;2.322;2023-10-19T13:15:10;98007.34;;;21.22;50.78
56518;BME280;42419;48.760;2.322;2023-10-19T13:17:39;97974.88;;;21.06;51.03